sensor_id;sensor_type;location;lat;lon;timestamp;temperature;humidity
64987;DHT22;51532;52.108;9.360;2023-02-15T00:02:01;1.70;87.00
64987;DHT22;51532;52.108;9.360;2023-02-15T00:04:28;1.80;87.40
64987;DHT22;51532;52.108;9.360;2023-02-15T00:07:15;1.80;87.20
64987;DHT22;51532;52.108;9.360;2023-02-15T00:09:42;1.80;87.20
64987;DHT22;51532;52.108;9.360;2023-02-15T00:12:09;1.70;87.20
64987;DHT22;51532;52.108;9.360;2023-02-15T00:14:36;1.70;87.30
64987;DHT22;51532;52.108;9.360;2023-02-15T00:17:03;1.70;87.30
64987;DHT22;51532;52.108;9.360;2023-02-15T00:19:30;1.70;87.30
64987;DHT22;51532;52.108;9.360;2023-02-15T00:21:57;1.70;87.30
64987;DHT22;51532;52.108;9.360;2023-02-15T00:24:24;1.70;87.10
64987;DHT22;51532;52.108;9.360;2023-02-15T00:26:52;1.70;87.20
64987;DHT22;51532;52.108;9.360;2023-02-15T00:29:19;1.60;87.30
64987;DHT22;51532;52.108;9.360;2023-02-15T00:31:46;1.60;87.00
64987;DHT22;51532;52.108;9.360;2023-02-15T00:34:18;1.60;87.00
64987;DHT22;51532;52.108;9.360;2023-02-15T00:36:45;1.60;86.80
64987;DHT22;51532;52.108;9.360;2023-02-15T00:39:14;1.50;86.70
64987;DHT22;51532;52.108;9.360;2023-02-15T00:41:43;1.40;86.70
64987;DHT22;51532;52.108;9.360;2023-02-15T00:44:11;1.40;86.60
64987;DHT22;51532;52.108;9.360;2023-02-15T00:46:38;1.40;86.60
64987;DHT22;51532;52.108;9.360;2023-02-15T00:49:08;1.30;86.30
64987;DHT22;51532;52.108;9.360;2023-02-15T00:51:37;1.20;86.40
64987;DHT22;51532;52.108;9.360;2023-02-15T00:54:04;1.20;86.60
64987;DHT22;51532;52.108;9.360;2023-02-15T00:56:31;1.20;86.80
64987;DHT22;51532;52.108;9.360;2023-02-15T00:58:58;1.20;86.70
64987;DHT22;51532;52.108;9.360;2023-02-15T01:01:25;1.20;86.80
64987;DHT22;51532;52.108;9.360;2023-02-15T01:03:52;1.20;87.00
64987;DHT22;51532;52.108;9.360;2023-02-15T01:06:19;1.20;86.90
64987;DHT22;51532;52.108;9.360;2023-02-15T01:08:47;1.20;86.80
64987;DHT22;51532;52.108;9.360;2023-02-15T01:11:20;1.10;86.80
64987;DHT22;51532;52.108;9.360;2023-02-15T01:13:52;1.10;86.90
64987;DHT22;51532;52.108;9.360;2023-02-15T01:16:19;1.10;87.00
64987;DHT22;51532;52.108;9.360;2023-02-15T01:18:46;1.10;87.00
64987;DHT22;51532;52.108;9.360;2023-02-15T01:21:17;1.10;87.00
64987;DHT22;51532;52.108;9.360;2023-02-15T01:23:45;1.10;86.90
64987;DHT22;51532;52.108;9.360;2023-02-15T01:26:12;1.10;86.70
64987;DHT22;51532;52.108;9.360;2023-02-15T01:28:39;1.00;86.70
64987;DHT22;51532;52.108;9.360;2023-02-15T01:31:08;1.00;86.90
64987;DHT22;51532;52.108;9.360;2023-02-15T01:33:37;1.00;86.90
64987;DHT22;51532;52.108;9.360;2023-02-15T01:36:04;1.00;87.00
64987;DHT22;51532;52.108;9.360;2023-02-15T01:38:31;0.90;86.90
64987;DHT22;51532;52.108;9.360;2023-02-15T01:40:58;0.80;86.90
64987;DHT22;51532;52.108;9.360;2023-02-15T01:43:47;0.80;87.00
64987;DHT22;51532;52.108;9.360;2023-02-15T01:46:16;0.80;86.90
64987;DHT22;51532;52.108;9.360;2023-02-15T01:48:47;0.80;87.00
64987;DHT22;51532;52.108;9.360;2023-02-15T01:51:17;0.80;87.00
64987;DHT22;51532;52.108;9.360;2023-02-15T01:53:55;0.80;86.90
64987;DHT22;51532;52.108;9.360;2023-02-15T01:56:30;0.80;87.00
64987;DHT22;51532;52.108;9.360;2023-02-15T01:59:02;0.90;87.20
64987;DHT22;51532;52.108;9.360;2023-02-15T02:01:30;0.90;86.90
64987;DHT22;51532;52.108;9.360;2023-02-15T02:06:32;0.90;86.50
64987;DHT22;51532;52.108;9.360;2023-02-15T02:09:00;1.00;86.60
64987;DHT22;51532;52.108;9.360;2023-02-15T02:11:27;0.90;86.40
64987;DHT22;51532;52.108;9.360;2023-02-15T02:13:55;0.80;86.50
64987;DHT22;51532;52.108;9.360;2023-02-15T02:30:42;0.60;87.00
64987;DHT22;51532;52.108;9.360;2023-02-15T02:33:18;0.60;87.10
64987;DHT22;51532;52.108;9.360;2023-02-15T02:46:53;0.50;86.80
64987;DHT22;51532;52.108;9.360;2023-02-15T02:49:51;0.50;86.90
64987;DHT22;51532;52.108;9.360;2023-02-15T02:52:38;0.50;87.10
64987;DHT22;51532;52.108;9.360;2023-02-15T02:55:10;0.50;87.20
64987;DHT22;51532;52.108;9.360;2023-02-15T02:57:43;0.50;87.10
64987;DHT22;51532;52.108;9.360;2023-02-15T03:00:14;0.50;87.20
64987;DHT22;51532;52.108;9.360;2023-02-15T03:02:44;0.40;87.30
64987;DHT22;51532;52.108;9.360;2023-02-15T03:05:17;0.40;87.20
64987;DHT22;51532;52.108;9.360;2023-02-15T03:07:48;0.40;87.30
64987;DHT22;51532;52.108;9.360;2023-02-15T03:10:18;0.40;87.30
64987;DHT22;51532;52.108;9.360;2023-02-15T03:12:50;0.30;87.30
64987;DHT22;51532;52.108;9.360;2023-02-15T03:15:26;0.30;87.30
64987;DHT22;51532;52.108;9.360;2023-02-15T03:18:18;0.30;87.50
64987;DHT22;51532;52.108;9.360;2023-02-15T03:20:46;0.30;87.50
64987;DHT22;51532;52.108;9.360;2023-02-15T03:23:18;0.30;87.50
64987;DHT22;51532;52.108;9.360;2023-02-15T03:25:51;0.30;87.50
64987;DHT22;51532;52.108;9.360;2023-02-15T03:28:29;0.30;87.70
64987;DHT22;51532;52.108;9.360;2023-02-15T03:31:00;0.30;87.70
64987;DHT22;51532;52.108;9.360;2023-02-15T03:33:28;0.30;87.80
64987;DHT22;51532;52.108;9.360;2023-02-15T03:36:20;0.20;87.70
64987;DHT22;51532;52.108;9.360;2023-02-15T03:38:54;0.20;87.80
64987;DHT22;51532;52.108;9.360;2023-02-15T03:41:29;0.20;88.00
64987;DHT22;51532;52.108;9.360;2023-02-15T03:44:21;0.20;87.90
64987;DHT22;51532;52.108;9.360;2023-02-15T03:47:00;0.20;88.00
64987;DHT22;51532;52.108;9.360;2023-02-15T03:49:39;0.20;88.10
64987;DHT22;51532;52.108;9.360;2023-02-15T03:52:08;0.30;88.00
64987;DHT22;51532;52.108;9.360;2023-02-15T03:54:37;0.30;88.20
64987;DHT22;51532;52.108;9.360;2023-02-15T03:57:23;0.30;88.20
64987;DHT22;51532;52.108;9.360;2023-02-15T04:00:17;0.30;88.30
64987;DHT22;51532;52.108;9.360;2023-02-15T04:05:35;0.50;88.10
64987;DHT22;51532;52.108;9.360;2023-02-15T04:08:02;0.50;87.90
64987;DHT22;51532;52.108;9.360;2023-02-15T04:10:29;0.50;88.00
64987;DHT22;51532;52.108;9.360;2023-02-15T04:13:14;0.50;87.90
64987;DHT22;51532;52.108;9.360;2023-02-15T04:15:41;0.60;87.80
64987;DHT22;51532;52.108;9.360;2023-02-15T04:18:27;0.60;87.70
64987;DHT22;51532;52.108;9.360;2023-02-15T04:21:12;0.60;87.70
64987;DHT22;51532;52.108;9.360;2023-02-15T04:23:58;0.60;87.50
64987;DHT22;51532;52.108;9.360;2023-02-15T04:26:43;0.60;87.50
64987;DHT22;51532;52.108;9.360;2023-02-15T04:29:10;0.60;87.30
64987;DHT22;51532;52.108;9.360;2023-02-15T04:31:37;0.60;87.20
64987;DHT22;51532;52.108;9.360;2023-02-15T04:34:04;0.60;87.30
64987;DHT22;51532;52.108;9.360;2023-02-15T04:36:31;0.60;87.20
64987;DHT22;51532;52.108;9.360;2023-02-15T04:38:57;0.60;87.10
64987;DHT22;51532;52.108;9.360;2023-02-15T04:41:24;0.60;87.30
64987;DHT22;51532;52.108;9.360;2023-02-15T04:43:51;0.70;87.10
64987;DHT22;51532;52.108;9.360;2023-02-15T04:46:18;0.80;87.00
64987;DHT22;51532;52.108;9.360;2023-02-15T04:48:44;0.80;86.80
64987;DHT22;51532;52.108;9.360;2023-02-15T04:51:11;0.80;86.40
64987;DHT22;51532;52.108;9.360;2023-02-15T04:53:38;0.80;86.50
64987;DHT22;51532;52.108;9.360;2023-02-15T04:56:05;0.80;86.60
64987;DHT22;51532;52.108;9.360;2023-02-15T04:58:31;0.80;86.70
64987;DHT22;51532;52.108;9.360;2023-02-15T05:00:59;0.80;86.70
64987;DHT22;51532;52.108;9.360;2023-02-15T05:03:26;0.80;86.60
64987;DHT22;51532;52.108;9.360;2023-02-15T05:05:52;0.80;86.50
64987;DHT22;51532;52.108;9.360;2023-02-15T05:08:19;0.80;86.50
64987;DHT22;51532;52.108;9.360;2023-02-15T05:10:48;0.80;86.10
64987;DHT22;51532;52.108;9.360;2023-02-15T05:13:15;0.80;86.20
64987;DHT22;51532;52.108;9.360;2023-02-15T05:15:47;0.80;86.40
64987;DHT22;51532;52.108;9.360;2023-02-15T05:18:15;0.80;86.40
64987;DHT22;51532;52.108;9.360;2023-02-15T05:20:42;0.80;86.30
64987;DHT22;51532;52.108;9.360;2023-02-15T05:23:09;0.80;86.10
64987;DHT22;51532;52.108;9.360;2023-02-15T05:25:36;0.80;86.20
64987;DHT22;51532;52.108;9.360;2023-02-15T05:28:23;0.80;85.70
64987;DHT22;51532;52.108;9.360;2023-02-15T05:31:02;0.80;85.40
64987;DHT22;51532;52.108;9.360;2023-02-15T05:33:29;0.80;85.70
64987;DHT22;51532;52.108;9.360;2023-02-15T05:35:56;0.70;85.50
64987;DHT22;51532;52.108;9.360;2023-02-15T05:38:23;0.80;85.70
64987;DHT22;51532;52.108;9.360;2023-02-15T05:40:51;0.80;85.70
64987;DHT22;51532;52.108;9.360;2023-02-15T05:43:18;0.80;85.30
64987;DHT22;51532;52.108;9.360;2023-02-15T05:45:49;0.80;85.30
64987;DHT22;51532;52.108;9.360;2023-02-15T05:48:17;0.80;85.40
64987;DHT22;51532;52.108;9.360;2023-02-15T05:50:44;0.80;85.40
64987;DHT22;51532;52.108;9.360;2023-02-15T05:53:11;0.80;85.50
64987;DHT22;51532;52.108;9.360;2023-02-15T05:55:41;0.80;85.50
64987;DHT22;51532;52.108;9.360;2023-02-15T05:58:08;0.80;85.20
64987;DHT22;51532;52.108;9.360;2023-02-15T06:00:35;0.70;85.00
64987;DHT22;51532;52.108;9.360;2023-02-15T06:03:03;0.60;85.40
64987;DHT22;51532;52.108;9.360;2023-02-15T06:05:30;0.60;85.20
64987;DHT22;51532;52.108;9.360;2023-02-15T06:07:57;0.60;85.20
64987;DHT22;51532;52.108;9.360;2023-02-15T06:10:24;0.60;85.10
64987;DHT22;51532;52.108;9.360;2023-02-15T06:12:50;0.60;85.20
64987;DHT22;51532;52.108;9.360;2023-02-15T06:15:17;0.60;85.00
64987;DHT22;51532;52.108;9.360;2023-02-15T06:17:44;0.60;84.60
64987;DHT22;51532;52.108;9.360;2023-02-15T06:20:11;0.60;84.90
64987;DHT22;51532;52.108;9.360;2023-02-15T06:22:38;0.60;85.10
64987;DHT22;51532;52.108;9.360;2023-02-15T06:25:05;0.60;85.20
64987;DHT22;51532;52.108;9.360;2023-02-15T06:27:32;0.60;85.10
64987;DHT22;51532;52.108;9.360;2023-02-15T06:29:59;0.60;85.10
64987;DHT22;51532;52.108;9.360;2023-02-15T06:32:26;0.60;85.00
64987;DHT22;51532;52.108;9.360;2023-02-15T06:34:52;0.70;84.90
64987;DHT22;51532;52.108;9.360;2023-02-15T06:37:19;0.60;84.90
64987;DHT22;51532;52.108;9.360;2023-02-15T06:39:46;0.60;84.70
64987;DHT22;51532;52.108;9.360;2023-02-15T06:42:12;0.70;84.90
64987;DHT22;51532;52.108;9.360;2023-02-15T06:44:39;0.60;84.80
64987;DHT22;51532;52.108;9.360;2023-02-15T06:47:06;0.70;84.70
64987;DHT22;51532;52.108;9.360;2023-02-15T06:49:33;0.60;84.80
64987;DHT22;51532;52.108;9.360;2023-02-15T06:51:59;0.70;84.90
64987;DHT22;51532;52.108;9.360;2023-02-15T06:54:26;0.70;84.90
64987;DHT22;51532;52.108;9.360;2023-02-15T06:56:53;0.80;84.50
64987;DHT22;51532;52.108;9.360;2023-02-15T06:59:20;0.80;84.50
64987;DHT22;51532;52.108;9.360;2023-02-15T07:01:47;0.80;84.60
64987;DHT22;51532;52.108;9.360;2023-02-15T07:04:13;0.80;84.60
64987;DHT22;51532;52.108;9.360;2023-02-15T07:06:40;0.80;84.20
64987;DHT22;51532;52.108;9.360;2023-02-15T07:09:07;0.80;84.30
64987;DHT22;51532;52.108;9.360;2023-02-15T07:11:34;0.80;84.20
64987;DHT22;51532;52.108;9.360;2023-02-15T07:14:20;0.80;84.20
64987;DHT22;51532;52.108;9.360;2023-02-15T07:16:46;0.80;84.00
64987;DHT22;51532;52.108;9.360;2023-02-15T07:19:13;0.80;84.10
64987;DHT22;51532;52.108;9.360;2023-02-15T07:21:40;0.80;83.70
64987;DHT22;51532;52.108;9.360;2023-02-15T07:24:07;0.80;83.90
64987;DHT22;51532;52.108;9.360;2023-02-15T07:26:34;0.80;83.60
64987;DHT22;51532;52.108;9.360;2023-02-15T07:29:01;1.00;83.90
64987;DHT22;51532;52.108;9.360;2023-02-15T07:31:28;1.00;83.40
64987;DHT22;51532;52.108;9.360;2023-02-15T07:33:54;1.00;83.00
64987;DHT22;51532;52.108;9.360;2023-02-15T07:36:21;1.00;83.00
64987;DHT22;51532;52.108;9.360;2023-02-15T07:38:48;0.90;82.90
64987;DHT22;51532;52.108;9.360;2023-02-15T07:41:15;1.00;83.10
64987;DHT22;51532;52.108;9.360;2023-02-15T07:43:43;1.00;82.80
64987;DHT22;51532;52.108;9.360;2023-02-15T07:46:15;1.00;82.60
64987;DHT22;51532;52.108;9.360;2023-02-15T07:48:44;1.00;82.30
64987;DHT22;51532;52.108;9.360;2023-02-15T07:51:11;1.00;82.40
64987;DHT22;51532;52.108;9.360;2023-02-15T07:53:38;1.00;81.90
64987;DHT22;51532;52.108;9.360;2023-02-15T07:56:10;1.00;81.50
64987;DHT22;51532;52.108;9.360;2023-02-15T07:58:38;1.00;82.10
64987;DHT22;51532;52.108;9.360;2023-02-15T08:03:49;1.00;81.60
64987;DHT22;51532;52.108;9.360;2023-02-15T08:06:16;1.00;81.80
64987;DHT22;51532;52.108;9.360;2023-02-15T08:08:44;1.10;81.80
64987;DHT22;51532;52.108;9.360;2023-02-15T08:11:22;1.20;81.70
64987;DHT22;51532;52.108;9.360;2023-02-15T08:13:53;1.20;81.10
64987;DHT22;51532;52.108;9.360;2023-02-15T08:18:59;1.30;81.20
64987;DHT22;51532;52.108;9.360;2023-02-15T08:21:28;1.40;81.10
64987;DHT22;51532;52.108;9.360;2023-02-15T08:23:56;1.40;81.10
64987;DHT22;51532;52.108;9.360;2023-02-15T08:26:24;1.50;80.80
64987;DHT22;51532;52.108;9.360;2023-02-15T08:28:51;1.50;80.50
64987;DHT22;51532;52.108;9.360;2023-02-15T08:31:18;1.60;80.40
64987;DHT22;51532;52.108;9.360;2023-02-15T08:33:47;1.70;80.60
64987;DHT22;51532;52.108;9.360;2023-02-15T08:36:17;1.70;80.00
64987;DHT22;51532;52.108;9.360;2023-02-15T08:38:45;1.70;79.80
64987;DHT22;51532;52.108;9.360;2023-02-15T08:41:16;1.80;79.90
64987;DHT22;51532;52.108;9.360;2023-02-15T08:43:43;1.80;80.10
64987;DHT22;51532;52.108;9.360;2023-02-15T08:46:11;1.70;79.80
64987;DHT22;51532;52.108;9.360;2023-02-15T08:48:38;1.70;79.70
64987;DHT22;51532;52.108;9.360;2023-02-15T08:51:13;1.70;80.10
64987;DHT22;51532;52.108;9.360;2023-02-15T08:53:46;1.70;80.20
64987;DHT22;51532;52.108;9.360;2023-02-15T08:56:17;1.90;80.00
64987;DHT22;51532;52.108;9.360;2023-02-15T08:58:45;1.90;79.80
64987;DHT22;51532;52.108;9.360;2023-02-15T09:01:17;2.00;79.70
64987;DHT22;51532;52.108;9.360;2023-02-15T09:03:48;1.90;79.60
64987;DHT22;51532;52.108;9.360;2023-02-15T09:06:16;1.90;79.90
64987;DHT22;51532;52.108;9.360;2023-02-15T09:08:43;2.10;80.00
64987;DHT22;51532;52.108;9.360;2023-02-15T09:11:12;2.10;79.40
64987;DHT22;51532;52.108;9.360;2023-02-15T09:13:40;2.30;78.90
64987;DHT22;51532;52.108;9.360;2023-02-15T09:16:08;2.20;78.60
64987;DHT22;51532;52.108;9.360;2023-02-15T09:18:38;2.20;79.00
64987;DHT22;51532;52.108;9.360;2023-02-15T09:21:08;2.30;78.20
64987;DHT22;51532;52.108;9.360;2023-02-15T09:23:35;2.30;78.20
64987;DHT22;51532;52.108;9.360;2023-02-15T09:26:04;2.40;78.30
64987;DHT22;51532;52.108;9.360;2023-02-15T09:28:31;2.30;77.70
64987;DHT22;51532;52.108;9.360;2023-02-15T09:33:36;2.40;77.20
64987;DHT22;51532;52.108;9.360;2023-02-15T09:36:04;2.30;77.20
64987;DHT22;51532;52.108;9.360;2023-02-15T09:38:34;2.40;77.50
64987;DHT22;51532;52.108;9.360;2023-02-15T09:41:29;2.50;77.40
64987;DHT22;51532;52.108;9.360;2023-02-15T09:47:15;2.60;77.00
64987;DHT22;51532;52.108;9.360;2023-02-15T09:52:48;2.90;76.20
64987;DHT22;51532;52.108;9.360;2023-02-15T09:58:27;2.90;76.40
64987;DHT22;51532;52.108;9.360;2023-02-15T10:04:44;3.00;76.00
64987;DHT22;51532;52.108;9.360;2023-02-15T10:18:42;3.00;75.80
64987;DHT22;51532;52.108;9.360;2023-02-15T10:24:36;3.30;75.50
64987;DHT22;51532;52.108;9.360;2023-02-15T10:27:18;3.50;75.10
64987;DHT22;51532;52.108;9.360;2023-02-15T10:30:02;3.50;74.80
64987;DHT22;51532;52.108;9.360;2023-02-15T10:32:40;3.60;74.60
64987;DHT22;51532;52.108;9.360;2023-02-15T10:35:30;3.60;74.40
64987;DHT22;51532;52.108;9.360;2023-02-15T10:38:16;3.90;73.90
64987;DHT22;51532;52.108;9.360;2023-02-15T10:46:52;3.60;73.90
64987;DHT22;51532;52.108;9.360;2023-02-15T10:49:54;3.60;74.60
64987;DHT22;51532;52.108;9.360;2023-02-15T10:52:53;3.50;74.80
64987;DHT22;51532;52.108;9.360;2023-02-15T11:01:25;3.50;75.60
64987;DHT22;51532;52.108;9.360;2023-02-15T11:06:53;3.30;75.90
64987;DHT22;51532;52.108;9.360;2023-02-15T11:09:23;3.30;76.20
64987;DHT22;51532;52.108;9.360;2023-02-15T11:11:53;3.30;76.20
64987;DHT22;51532;52.108;9.360;2023-02-15T11:14:44;3.30;76.30
64987;DHT22;51532;52.108;9.360;2023-02-15T11:17:17;3.30;76.50
64987;DHT22;51532;52.108;9.360;2023-02-15T11:20:04;3.30;76.70
64987;DHT22;51532;52.108;9.360;2023-02-15T11:22:34;3.40;76.50
64987;DHT22;51532;52.108;9.360;2023-02-15T11:25:10;3.50;76.50
64987;DHT22;51532;52.108;9.360;2023-02-15T11:27:42;3.50;76.40
64987;DHT22;51532;52.108;9.360;2023-02-15T11:30:54;3.50;76.20
64987;DHT22;51532;52.108;9.360;2023-02-15T11:33:03;3.50;76.40
64987;DHT22;51532;52.108;9.360;2023-02-15T11:35:37;3.60;76.10
64987;DHT22;51532;52.108;9.360;2023-02-15T11:38:18;3.50;76.20
64987;DHT22;51532;52.108;9.360;2023-02-15T11:40:49;3.70;76.10
64987;DHT22;51532;52.108;9.360;2023-02-15T11:43:31;3.70;76.10
64987;DHT22;51532;52.108;9.360;2023-02-15T11:45:59;3.70;75.90
64987;DHT22;51532;52.108;9.360;2023-02-15T11:48:29;3.70;76.00
64987;DHT22;51532;52.108;9.360;2023-02-15T11:50:57;3.70;76.30
64987;DHT22;51532;52.108;9.360;2023-02-15T11:53:25;3.80;76.20
64987;DHT22;51532;52.108;9.360;2023-02-15T11:55:55;3.90;76.00
64987;DHT22;51532;52.108;9.360;2023-02-15T11:58:35;4.00;75.40
64987;DHT22;51532;52.108;9.360;2023-02-15T12:01:18;4.00;75.30
64987;DHT22;51532;52.108;9.360;2023-02-15T12:03:55;4.00;75.30
64987;DHT22;51532;52.108;9.360;2023-02-15T12:06:28;4.00;75.50
64987;DHT22;51532;52.108;9.360;2023-02-15T12:09:20;4.20;75.30
64987;DHT22;51532;52.108;9.360;2023-02-15T12:11:51;4.30;74.70
64987;DHT22;51532;52.108;9.360;2023-02-15T12:14:18;4.20;74.50
64987;DHT22;51532;52.108;9.360;2023-02-15T12:16:49;4.20;74.50
64987;DHT22;51532;52.108;9.360;2023-02-15T12:19:41;4.20;74.70
64987;DHT22;51532;52.108;9.360;2023-02-15T12:24:52;4.30;74.50
64987;DHT22;51532;52.108;9.360;2023-02-15T12:27:29;4.40;74.20
64987;DHT22;51532;52.108;9.360;2023-02-15T12:30:30;4.40;74.40
64987;DHT22;51532;52.108;9.360;2023-02-15T12:33:18;4.40;74.20
64987;DHT22;51532;52.108;9.360;2023-02-15T12:35:50;4.40;74.30
64987;DHT22;51532;52.108;9.360;2023-02-15T12:38:27;4.40;74.20
64987;DHT22;51532;52.108;9.360;2023-02-15T12:41:03;4.40;74.20
64987;DHT22;51532;52.108;9.360;2023-02-15T12:43:35;4.50;74.30
64987;DHT22;51532;52.108;9.360;2023-02-15T12:46:22;4.50;74.20
64987;DHT22;51532;52.108;9.360;2023-02-15T12:51:47;4.50;74.20
64987;DHT22;51532;52.108;9.360;2023-02-15T12:56:51;4.70;73.60
64987;DHT22;51532;52.108;9.360;2023-02-15T12:59:18;4.60;73.80
64987;DHT22;51532;52.108;9.360;2023-02-15T13:01:51;4.70;73.50
64987;DHT22;51532;52.108;9.360;2023-02-15T13:04:27;4.70;73.60
64987;DHT22;51532;52.108;9.360;2023-02-15T13:06:58;4.70;73.80
64987;DHT22;51532;52.108;9.360;2023-02-15T13:09:37;4.90;73.60
64987;DHT22;51532;52.108;9.360;2023-02-15T13:12:25;5.00;73.20
64987;DHT22;51532;52.108;9.360;2023-02-15T13:14:57;5.00;73.00
64987;DHT22;51532;52.108;9.360;2023-02-15T13:17:30;5.00;72.90
64987;DHT22;51532;52.108;9.360;2023-02-15T13:20:05;5.10;73.00
64987;DHT22;51532;52.108;9.360;2023-02-15T13:22:42;5.10;72.50
64987;DHT22;51532;52.108;9.360;2023-02-15T13:25:21;5.10;72.70
64987;DHT22;51532;52.108;9.360;2023-02-15T13:27:52;5.10;72.70
64987;DHT22;51532;52.108;9.360;2023-02-15T13:30:25;5.20;72.70
64987;DHT22;51532;52.108;9.360;2023-02-15T13:32:59;5.20;72.80
64987;DHT22;51532;52.108;9.360;2023-02-15T13:35:33;5.30;73.10
64987;DHT22;51532;52.108;9.360;2023-02-15T13:41:03;5.30;72.80
64987;DHT22;51532;52.108;9.360;2023-02-15T13:46:31;5.50;72.70
64987;DHT22;51532;52.108;9.360;2023-02-15T13:49:19;5.50;72.20
64987;DHT22;51532;52.108;9.360;2023-02-15T13:52:00;5.50;72.40
64987;DHT22;51532;52.108;9.360;2023-02-15T13:55:06;5.50;71.90
64987;DHT22;51532;52.108;9.360;2023-02-15T14:03:41;5.60;71.70
64987;DHT22;51532;52.108;9.360;2023-02-15T14:12:09;5.80;71.10
64987;DHT22;51532;52.108;9.360;2023-02-15T14:17:48;6.00;70.60
64987;DHT22;51532;52.108;9.360;2023-02-15T14:20:27;6.10;70.50
64987;DHT22;51532;52.108;9.360;2023-02-15T14:23:07;6.10;70.40
64987;DHT22;51532;52.108;9.360;2023-02-15T14:25:42;6.00;70.40
64987;DHT22;51532;52.108;9.360;2023-02-15T14:28:34;6.10;70.30
64987;DHT22;51532;52.108;9.360;2023-02-15T14:31:04;6.20;70.10
64987;DHT22;51532;52.108;9.360;2023-02-15T14:33:43;6.30;70.10
64987;DHT22;51532;52.108;9.360;2023-02-15T14:36:17;6.20;69.70
64987;DHT22;51532;52.108;9.360;2023-02-15T14:43:08;6.20;70.00
64987;DHT22;51532;52.108;9.360;2023-02-15T14:45:41;6.20;70.20
64987;DHT22;51532;52.108;9.360;2023-02-15T14:48:31;6.10;70.60
64987;DHT22;51532;52.108;9.360;2023-02-15T14:50:59;6.10;70.80
64987;DHT22;51532;52.108;9.360;2023-02-15T14:58:37;6.20;70.80
64987;DHT22;51532;52.108;9.360;2023-02-15T15:01:06;6.20;71.00
64987;DHT22;51532;52.108;9.360;2023-02-15T15:03:34;6.10;71.30
64987;DHT22;51532;52.108;9.360;2023-02-15T15:06:04;6.10;71.50
64987;DHT22;51532;52.108;9.360;2023-02-15T15:08:38;6.10;71.50
64987;DHT22;51532;52.108;9.360;2023-02-15T15:11:46;6.20;71.30
64987;DHT22;51532;52.108;9.360;2023-02-15T15:17:00;6.20;71.10
64987;DHT22;51532;52.108;9.360;2023-02-15T15:22:23;6.10;71.50
64987;DHT22;51532;52.108;9.360;2023-02-15T15:24:54;6.10;71.70
64987;DHT22;51532;52.108;9.360;2023-02-15T15:38:51;5.90;72.50
64987;DHT22;51532;52.108;9.360;2023-02-15T15:41:39;5.90;72.60
64987;DHT22;51532;52.108;9.360;2023-02-15T15:50:11;5.70;73.00
64987;DHT22;51532;52.108;9.360;2023-02-15T15:52:38;5.70;72.90
64987;DHT22;51532;52.108;9.360;2023-02-15T15:55:19;5.60;73.10
64987;DHT22;51532;52.108;9.360;2023-02-15T15:57:50;5.60;73.40
64987;DHT22;51532;52.108;9.360;2023-02-15T16:00:44;5.50;73.60
64987;DHT22;51532;52.108;9.360;2023-02-15T16:03:24;5.50;73.90
64987;DHT22;51532;52.108;9.360;2023-02-15T16:05:51;5.50;74.20
64987;DHT22;51532;52.108;9.360;2023-02-15T16:08:37;5.50;74.30
64987;DHT22;51532;52.108;9.360;2023-02-15T16:11:15;5.50;74.40
64987;DHT22;51532;52.108;9.360;2023-02-15T16:13:43;5.30;74.60
64987;DHT22;51532;52.108;9.360;2023-02-15T16:16:12;5.30;74.70
64987;DHT22;51532;52.108;9.360;2023-02-15T16:18:40;5.20;75.00
64987;DHT22;51532;52.108;9.360;2023-02-15T16:21:16;5.10;75.10
64987;DHT22;51532;52.108;9.360;2023-02-15T16:26:52;4.90;75.80
64987;DHT22;51532;52.108;9.360;2023-02-15T16:29:28;4.80;76.10
64987;DHT22;51532;52.108;9.360;2023-02-15T16:32:32;4.70;76.40
64987;DHT22;51532;52.108;9.360;2023-02-15T16:34:57;4.70;76.50
64987;DHT22;51532;52.108;9.360;2023-02-15T16:37:33;4.70;76.70
64987;DHT22;51532;52.108;9.360;2023-02-15T16:40:00;4.60;76.90
64987;DHT22;51532;52.108;9.360;2023-02-15T16:42:27;4.60;77.00
64987;DHT22;51532;52.108;9.360;2023-02-15T16:45:00;4.50;77.20
64987;DHT22;51532;52.108;9.360;2023-02-15T16:47:34;4.50;77.10
64987;DHT22;51532;52.108;9.360;2023-02-15T16:50:20;4.40;77.30
64987;DHT22;51532;52.108;9.360;2023-02-15T16:52:47;4.40;77.60
64987;DHT22;51532;52.108;9.360;2023-02-15T16:55:25;4.30;77.80
64987;DHT22;51532;52.108;9.360;2023-02-15T16:57:55;4.10;78.10
64987;DHT22;51532;52.108;9.360;2023-02-15T17:00:26;4.10;78.50
64987;DHT22;51532;52.108;9.360;2023-02-15T17:03:00;4.00;78.70
64987;DHT22;51532;52.108;9.360;2023-02-15T17:05:33;4.00;79.00
64987;DHT22;51532;52.108;9.360;2023-02-15T17:13:27;3.90;79.30
64987;DHT22;51532;52.108;9.360;2023-02-15T17:18:30;3.80;79.80
64987;DHT22;51532;52.108;9.360;2023-02-15T17:21:00;3.80;79.70
64987;DHT22;51532;52.108;9.360;2023-02-15T17:23:31;3.70;80.00
64987;DHT22;51532;52.108;9.360;2023-02-15T17:26:00;3.70;80.00
64987;DHT22;51532;52.108;9.360;2023-02-15T17:28:30;3.70;80.00
64987;DHT22;51532;52.108;9.360;2023-02-15T17:30:58;3.60;80.10
64987;DHT22;51532;52.108;9.360;2023-02-15T17:33:46;3.60;80.00
64987;DHT22;51532;52.108;9.360;2023-02-15T17:36:18;3.70;80.10
64987;DHT22;51532;52.108;9.360;2023-02-15T17:41:26;3.60;80.00
64987;DHT22;51532;52.108;9.360;2023-02-15T17:43:53;3.70;79.90
64987;DHT22;51532;52.108;9.360;2023-02-15T17:46:20;3.60;79.80
64987;DHT22;51532;52.108;9.360;2023-02-15T17:49:22;3.60;79.90
64987;DHT22;51532;52.108;9.360;2023-02-15T17:51:50;3.50;79.90
64987;DHT22;51532;52.108;9.360;2023-02-15T17:54:17;3.50;80.20
64987;DHT22;51532;52.108;9.360;2023-02-15T17:57:05;3.50;80.20
64987;DHT22;51532;52.108;9.360;2023-02-15T17:59:32;3.50;80.20
64987;DHT22;51532;52.108;9.360;2023-02-15T18:01:59;3.50;80.10
64987;DHT22;51532;52.108;9.360;2023-02-15T18:04:44;3.50;80.30
64987;DHT22;51532;52.108;9.360;2023-02-15T18:07:30;3.50;80.10
64987;DHT22;51532;52.108;9.360;2023-02-15T18:10:17;3.50;80.10
64987;DHT22;51532;52.108;9.360;2023-02-15T18:13:03;3.50;80.00
64987;DHT22;51532;52.108;9.360;2023-02-15T18:15:30;3.50;80.00
64987;DHT22;51532;52.108;9.360;2023-02-15T18:17:57;3.50;79.80
64987;DHT22;51532;52.108;9.360;2023-02-15T18:20:28;3.40;80.00
64987;DHT22;51532;52.108;9.360;2023-02-15T18:22:57;3.30;80.10
64987;DHT22;51532;52.108;9.360;2023-02-15T18:25:23;3.30;80.10
64987;DHT22;51532;52.108;9.360;2023-02-15T18:27:51;3.40;80.00
64987;DHT22;51532;52.108;9.360;2023-02-15T18:30:22;3.40;79.80
64987;DHT22;51532;52.108;9.360;2023-02-15T18:32:54;3.30;80.00
64987;DHT22;51532;52.108;9.360;2023-02-15T18:35:24;3.30;80.00
64987;DHT22;51532;52.108;9.360;2023-02-15T18:37:52;3.30;80.00
64987;DHT22;51532;52.108;9.360;2023-02-15T18:40:21;3.30;80.10
64987;DHT22;51532;52.108;9.360;2023-02-15T18:42:49;3.20;80.10
64987;DHT22;51532;52.108;9.360;2023-02-15T18:45:21;3.20;80.30
64987;DHT22;51532;52.108;9.360;2023-02-15T18:47:49;3.20;80.10
64987;DHT22;51532;52.108;9.360;2023-02-15T18:50:18;3.20;80.10
64987;DHT22;51532;52.108;9.360;2023-02-15T18:52:47;3.10;80.20
64987;DHT22;51532;52.108;9.360;2023-02-15T18:55:22;3.10;80.30